sensor_id;sensor_type;location;lat;lon;timestamp;temperature;humidity
4795;DHT22;2411;47.060;15.064;2023-06-05T00:01:14;14.90;99.90
4795;DHT22;2411;47.060;15.064;2023-06-05T00:03:42;14.80;99.90
4795;DHT22;2411;47.060;15.064;2023-06-05T00:06:10;14.80;99.90
4795;DHT22;2411;47.060;15.064;2023-06-05T00:08:38;14.80;99.90
4795;DHT22;2411;47.060;15.064;2023-06-05T00:11:05;14.80;99.90
4795;DHT22;2411;47.060;15.064;2023-06-05T00:13:33;14.80;99.90
4795;DHT22;2411;47.060;15.064;2023-06-05T00:16:00;14.80;99.90
4795;DHT22;2411;47.060;15.064;2023-06-05T00:18:30;14.80;99.90
4795;DHT22;2411;47.060;15.064;2023-06-05T00:20:58;14.80;99.90
4795;DHT22;2411;47.060;15.064;2023-06-05T00:23:25;14.80;99.90
4795;DHT22;2411;47.060;15.064;2023-06-05T00:25:52;14.80;99.90
4795;DHT22;2411;47.060;15.064;2023-06-05T00:28:20;14.80;99.90
4795;DHT22;2411;47.060;15.064;2023-06-05T00:30:47;14.80;99.90
4795;DHT22;2411;47.060;15.064;2023-06-05T00:33:14;14.80;99.90
4795;DHT22;2411;47.060;15.064;2023-06-05T00:35:42;14.80;99.90
4795;DHT22;2411;47.060;15.064;2023-06-05T00:38:10;14.80;99.90
4795;DHT22;2411;47.060;15.064;2023-06-05T00:40:37;14.80;99.90
4795;DHT22;2411;47.060;15.064;2023-06-05T00:43:05;14.80;99.90
4795;DHT22;2411;47.060;15.064;2023-06-05T00:45:35;14.80;99.90
4795;DHT22;2411;47.060;15.064;2023-06-05T00:48:02;14.70;99.90
4795;DHT22;2411;47.060;15.064;2023-06-05T00:50:31;14.70;99.90
4795;DHT22;2411;47.060;15.064;2023-06-05T00:53:01;14.80;99.90
4795;DHT22;2411;47.060;15.064;2023-06-05T00:55:29;14.80;99.90
4795;DHT22;2411;47.060;15.064;2023-06-05T00:57:57;14.70;99.90
4795;DHT22;2411;47.060;15.064;2023-06-05T01:00:25;14.70;99.90
4795;DHT22;2411;47.060;15.064;2023-06-05T01:02:53;14.70;99.90
4795;DHT22;2411;47.060;15.064;2023-06-05T01:05:24;14.70;99.90
4795;DHT22;2411;47.060;15.064;2023-06-05T01:07:51;14.70;99.90
4795;DHT22;2411;47.060;15.064;2023-06-05T01:10:19;14.70;99.90
4795;DHT22;2411;47.060;15.064;2023-06-05T01:13:18;14.60;99.90
4795;DHT22;2411;47.060;15.064;2023-06-05T01:15:42;14.70;99.90
4795;DHT22;2411;47.060;15.064;2023-06-05T01:18:09;14.70;99.90
4795;DHT22;2411;47.060;15.064;2023-06-05T01:20:39;14.70;99.90
4795;DHT22;2411;47.060;15.064;2023-06-05T01:23:10;14.60;99.90
4795;DHT22;2411;47.060;15.064;2023-06-05T01:25:37;14.70;99.90
4795;DHT22;2411;47.060;15.064;2023-06-05T01:28:17;14.60;99.90
4795;DHT22;2411;47.060;15.064;2023-06-05T01:33:28;14.70;99.90
4795;DHT22;2411;47.060;15.064;2023-06-05T01:35:58;14.70;99.90
4795;DHT22;2411;47.060;15.064;2023-06-05T01:38:35;14.70;99.90
4795;DHT22;2411;47.060;15.064;2023-06-05T01:41:04;14.60;99.90
4795;DHT22;2411;47.060;15.064;2023-06-05T01:43:32;14.70;99.90
4795;DHT22;2411;47.060;15.064;2023-06-05T01:46:09;14.70;99.90
4795;DHT22;2411;47.060;15.064;2023-06-05T01:48:37;14.70;99.90
4795;DHT22;2411;47.060;15.064;2023-06-05T01:51:06;14.70;99.90
4795;DHT22;2411;47.060;15.064;2023-06-05T01:53:33;14.70;99.90
4795;DHT22;2411;47.060;15.064;2023-06-05T01:56:01;14.70;99.90
4795;DHT22;2411;47.060;15.064;2023-06-05T01:58:29;14.70;99.90
4795;DHT22;2411;47.060;15.064;2023-06-05T02:00:56;14.60;99.90
4795;DHT22;2411;47.060;15.064;2023-06-05T02:03:24;14.70;99.90
4795;DHT22;2411;47.060;15.064;2023-06-05T02:05:52;14.70;99.90
4795;DHT22;2411;47.060;15.064;2023-06-05T02:08:20;14.60;99.90
4795;DHT22;2411;47.060;15.064;2023-06-05T02:10:50;14.60;99.90
4795;DHT22;2411;47.060;15.064;2023-06-05T02:13:18;14.60;99.90
4795;DHT22;2411;47.060;15.064;2023-06-05T02:15:49;14.60;99.90
4795;DHT22;2411;47.060;15.064;2023-06-05T02:18:23;14.60;99.90
4795;DHT22;2411;47.060;15.064;2023-06-05T02:20:55;14.50;99.90
4795;DHT22;2411;47.060;15.064;2023-06-05T02:23:23;14.50;99.90
4795;DHT22;2411;47.060;15.064;2023-06-05T02:25:51;14.60;99.90
4795;DHT22;2411;47.060;15.064;2023-06-05T02:28:19;14.60;99.90
4795;DHT22;2411;47.060;15.064;2023-06-05T02:30:47;14.60;99.90
4795;DHT22;2411;47.060;15.064;2023-06-05T02:33:15;14.50;99.90
4795;DHT22;2411;47.060;15.064;2023-06-05T02:35:42;14.50;99.90
4795;DHT22;2411;47.060;15.064;2023-06-05T02:38:10;14.50;99.90
4795;DHT22;2411;47.060;15.064;2023-06-05T02:40:39;14.50;99.90
4795;DHT22;2411;47.060;15.064;2023-06-05T02:43:07;14.50;99.90
4795;DHT22;2411;47.060;15.064;2023-06-05T02:45:35;14.50;99.90
4795;DHT22;2411;47.060;15.064;2023-06-05T02:48:02;14.50;99.90
4795;DHT22;2411;47.060;15.064;2023-06-05T02:50:30;14.50;99.90
4795;DHT22;2411;47.060;15.064;2023-06-05T02:52:57;14.50;99.90
4795;DHT22;2411;47.060;15.064;2023-06-05T02:55:24;14.50;99.90
4795;DHT22;2411;47.060;15.064;2023-06-05T02:57:57;14.50;99.90
4795;DHT22;2411;47.060;15.064;2023-06-05T03:00:24;14.40;99.90
4795;DHT22;2411;47.060;15.064;2023-06-05T03:02:53;14.40;99.90
4795;DHT22;2411;47.060;15.064;2023-06-05T03:05:23;14.30;99.90
4795;DHT22;2411;47.060;15.064;2023-06-05T03:07:52;14.40;99.90
4795;DHT22;2411;47.060;15.064;2023-06-05T03:10:21;14.40;99.90
4795;DHT22;2411;47.060;15.064;2023-06-05T03:12:48;14.30;99.90
4795;DHT22;2411;47.060;15.064;2023-06-05T03:15:16;14.30;99.90
4795;DHT22;2411;47.060;15.064;2023-06-05T03:17:45;14.30;99.90
4795;DHT22;2411;47.060;15.064;2023-06-05T03:20:18;14.30;99.90
4795;DHT22;2411;47.060;15.064;2023-06-05T03:22:45;14.20;99.90
4795;DHT22;2411;47.060;15.064;2023-06-05T03:25:12;14.30;99.90
4795;DHT22;2411;47.060;15.064;2023-06-05T03:27:40;14.20;99.90
4795;DHT22;2411;47.060;15.064;2023-06-05T03:30:08;14.20;99.90
4795;DHT22;2411;47.060;15.064;2023-06-05T03:32:36;14.10;99.90
4795;DHT22;2411;47.060;15.064;2023-06-05T03:35:03;14.10;99.90
4795;DHT22;2411;47.060;15.064;2023-06-05T03:37:31;14.10;99.90
4795;DHT22;2411;47.060;15.064;2023-06-05T03:39:58;14.10;99.90
4795;DHT22;2411;47.060;15.064;2023-06-05T03:42:26;14.20;99.90
4795;DHT22;2411;47.060;15.064;2023-06-05T03:44:54;14.10;99.90
4795;DHT22;2411;47.060;15.064;2023-06-05T03:47:23;14.20;99.90
4795;DHT22;2411;47.060;15.064;2023-06-05T03:49:50;14.10;99.90
4795;DHT22;2411;47.060;15.064;2023-06-05T03:52:19;14.10;99.90
4795;DHT22;2411;47.060;15.064;2023-06-05T03:54:50;14.20;99.90
4795;DHT22;2411;47.060;15.064;2023-06-05T03:57:21;14.10;99.90
4795;DHT22;2411;47.060;15.064;2023-06-05T03:59:48;14.10;99.90
4795;DHT22;2411;47.060;15.064;2023-06-05T04:02:15;14.20;99.90
4795;DHT22;2411;47.060;15.064;2023-06-05T04:04:42;14.10;99.90
4795;DHT22;2411;47.060;15.064;2023-06-05T04:07:10;14.20;99.90
4795;DHT22;2411;47.060;15.064;2023-06-05T04:09:38;14.20;99.90
4795;DHT22;2411;47.060;15.064;2023-06-05T04:12:23;14.20;99.90
4795;DHT22;2411;47.060;15.064;2023-06-05T04:15:09;14.10;99.90
4795;DHT22;2411;47.060;15.064;2023-06-05T04:17:37;14.10;99.90
4795;DHT22;2411;47.060;15.064;2023-06-05T04:20:05;14.10;99.90
4795;DHT22;2411;47.060;15.064;2023-06-05T04:22:37;14.20;99.90
4795;DHT22;2411;47.060;15.064;2023-06-05T04:25:05;14.10;99.90
4795;DHT22;2411;47.060;15.064;2023-06-05T04:27:33;14.10;99.90
4795;DHT22;2411;47.060;15.064;2023-06-05T04:30:00;14.10;99.90
4795;DHT22;2411;47.060;15.064;2023-06-05T04:32:28;14.20;99.90
4795;DHT22;2411;47.060;15.064;2023-06-05T04:34:56;14.20;99.90
4795;DHT22;2411;47.060;15.064;2023-06-05T04:37:24;14.20;99.90
4795;DHT22;2411;47.060;15.064;2023-06-05T04:39:51;14.20;99.50
4795;DHT22;2411;47.060;15.064;2023-06-05T04:42:18;14.20;99.90
4795;DHT22;2411;47.060;15.064;2023-06-05T04:44:57;14.30;99.90
4795;DHT22;2411;47.060;15.064;2023-06-05T04:47:25;14.30;99.90
4795;DHT22;2411;47.060;15.064;2023-06-05T04:49:52;14.40;99.90
4795;DHT22;2411;47.060;15.064;2023-06-05T04:52:21;14.40;94.60
4795;DHT22;2411;47.060;15.064;2023-06-05T04:54:48;14.40;91.60
4795;DHT22;2411;47.060;15.064;2023-06-05T04:57:16;14.50;91.30
4795;DHT22;2411;47.060;15.064;2023-06-05T04:59:44;14.50;92.90
4795;DHT22;2411;47.060;15.064;2023-06-05T05:02:12;14.50;97.40
4795;DHT22;2411;47.060;15.064;2023-06-05T05:04:40;14.50;99.90
4795;DHT22;2411;47.060;15.064;2023-06-05T05:07:07;14.50;92.00
4795;DHT22;2411;47.060;15.064;2023-06-05T05:09:40;14.50;81.70
4795;DHT22;2411;47.060;15.064;2023-06-05T05:12:08;14.50;88.60
4795;DHT22;2411;47.060;15.064;2023-06-05T05:14:36;14.50;80.80
4795;DHT22;2411;47.060;15.064;2023-06-05T05:17:04;14.40;82.20
4795;DHT22;2411;47.060;15.064;2023-06-05T05:19:31;14.50;77.80
4795;DHT22;2411;47.060;15.064;2023-06-05T05:21:59;14.60;80.00
4795;DHT22;2411;47.060;15.064;2023-06-05T05:24:26;14.60;79.10
4795;DHT22;2411;47.060;15.064;2023-06-05T05:26:53;14.60;75.80
4795;DHT22;2411;47.060;15.064;2023-06-05T05:29:21;14.70;84.40
4795;DHT22;2411;47.060;15.064;2023-06-05T05:31:48;14.70;74.70
4795;DHT22;2411;47.060;15.064;2023-06-05T05:34:17;14.70;76.20
4795;DHT22;2411;47.060;15.064;2023-06-05T05:36:45;14.80;80.70
4795;DHT22;2411;47.060;15.064;2023-06-05T05:39:12;14.80;85.50
4795;DHT22;2411;47.060;15.064;2023-06-05T05:41:39;14.90;88.00
4795;DHT22;2411;47.060;15.064;2023-06-05T05:44:07;14.80;88.70
4795;DHT22;2411;47.060;15.064;2023-06-05T05:46:34;14.80;78.40
4795;DHT22;2411;47.060;15.064;2023-06-05T05:49:02;14.80;67.70
4795;DHT22;2411;47.060;15.064;2023-06-05T05:51:29;14.80;69.70
4795;DHT22;2411;47.060;15.064;2023-06-05T05:53:56;14.80;76.70
4795;DHT22;2411;47.060;15.064;2023-06-05T05:56:24;14.80;82.70
4795;DHT22;2411;47.060;15.064;2023-06-05T05:58:51;14.90;74.00
4795;DHT22;2411;47.060;15.064;2023-06-05T06:01:19;14.90;89.10
4795;DHT22;2411;47.060;15.064;2023-06-05T06:03:46;14.80;60.70
4795;DHT22;2411;47.060;15.064;2023-06-05T06:06:14;14.80;62.20
4795;DHT22;2411;47.060;15.064;2023-06-05T06:08:42;14.90;70.40
4795;DHT22;2411;47.060;15.064;2023-06-05T06:11:09;14.90;71.00
4795;DHT22;2411;47.060;15.064;2023-06-05T06:13:37;14.80;63.80
4795;DHT22;2411;47.060;15.064;2023-06-05T06:16:04;14.80;59.80
4795;DHT22;2411;47.060;15.064;2023-06-05T06:18:32;14.80;55.30
4795;DHT22;2411;47.060;15.064;2023-06-05T06:20:59;14.80;71.80
4795;DHT22;2411;47.060;15.064;2023-06-05T06:23:26;14.80;52.10
4795;DHT22;2411;47.060;15.064;2023-06-05T06:25:54;14.90;49.40
4795;DHT22;2411;47.060;15.064;2023-06-05T06:28:21;14.90;57.10
4795;DHT22;2411;47.060;15.064;2023-06-05T06:30:48;14.90;62.40
4795;DHT22;2411;47.060;15.064;2023-06-05T06:33:16;15.00;56.40
4795;DHT22;2411;47.060;15.064;2023-06-05T06:35:43;15.00;51.60
4795;DHT22;2411;47.060;15.064;2023-06-05T06:38:10;15.00;58.20
4795;DHT22;2411;47.060;15.064;2023-06-05T06:40:38;15.10;59.50
4795;DHT22;2411;47.060;15.064;2023-06-05T06:43:05;15.10;63.20
4795;DHT22;2411;47.060;15.064;2023-06-05T06:45:32;15.10;71.90
4795;DHT22;2411;47.060;15.064;2023-06-05T06:48:00;15.10;49.30
4795;DHT22;2411;47.060;15.064;2023-06-05T06:50:34;15.20;68.50
4795;DHT22;2411;47.060;15.064;2023-06-05T06:53:02;15.10;49.80
4795;DHT22;2411;47.060;15.064;2023-06-05T06:55:33;15.10;52.80
4795;DHT22;2411;47.060;15.064;2023-06-05T06:58:00;15.30;55.50
4795;DHT22;2411;47.060;15.064;2023-06-05T07:00:27;15.30;54.80
4795;DHT22;2411;47.060;15.064;2023-06-05T07:02:55;15.40;57.90
4795;DHT22;2411;47.060;15.064;2023-06-05T07:05:23;15.40;52.70
4795;DHT22;2411;47.060;15.064;2023-06-05T07:07:51;15.40;49.30
4795;DHT22;2411;47.060;15.064;2023-06-05T07:10:18;15.40;52.00
4795;DHT22;2411;47.060;15.064;2023-06-05T07:12:45;15.40;52.70
4795;DHT22;2411;47.060;15.064;2023-06-05T07:15:13;15.30;51.20
4795;DHT22;2411;47.060;15.064;2023-06-05T07:17:40;15.20;49.60
4795;DHT22;2411;47.060;15.064;2023-06-05T07:20:08;15.30;57.00
4795;DHT22;2411;47.060;15.064;2023-06-05T07:22:36;15.30;53.60
4795;DHT22;2411;47.060;15.064;2023-06-05T07:25:03;15.30;46.30
4795;DHT22;2411;47.060;15.064;2023-06-05T07:27:32;15.20;44.70
4795;DHT22;2411;47.060;15.064;2023-06-05T07:29:59;15.20;41.90
4795;DHT22;2411;47.060;15.064;2023-06-05T07:32:26;15.20;43.70
4795;DHT22;2411;47.060;15.064;2023-06-05T07:34:54;15.20;54.00
4795;DHT22;2411;47.060;15.064;2023-06-05T07:37:22;15.30;54.60
4795;DHT22;2411;47.060;15.064;2023-06-05T07:39:49;15.30;45.20
4795;DHT22;2411;47.060;15.064;2023-06-05T07:42:18;15.40;51.70
4795;DHT22;2411;47.060;15.064;2023-06-05T07:44:45;15.40;54.30
4795;DHT22;2411;47.060;15.064;2023-06-05T07:47:12;15.40;64.10
4795;DHT22;2411;47.060;15.064;2023-06-05T07:49:40;15.50;67.60
4795;DHT22;2411;47.060;15.064;2023-06-05T07:52:07;15.40;54.50
4795;DHT22;2411;47.060;15.064;2023-06-05T07:54:34;15.40;82.20
4795;DHT22;2411;47.060;15.064;2023-06-05T07:57:05;15.40;63.00
4795;DHT22;2411;47.060;15.064;2023-06-05T07:59:35;15.30;68.20
4795;DHT22;2411;47.060;15.064;2023-06-05T08:02:02;15.30;66.80
4795;DHT22;2411;47.060;15.064;2023-06-05T08:04:29;15.20;64.50
4795;DHT22;2411;47.060;15.064;2023-06-05T08:06:57;15.20;71.40
4795;DHT22;2411;47.060;15.064;2023-06-05T08:09:24;15.20;71.90
4795;DHT22;2411;47.060;15.064;2023-06-05T08:11:52;15.20;70.90
4795;DHT22;2411;47.060;15.064;2023-06-05T08:14:19;15.10;74.10
4795;DHT22;2411;47.060;15.064;2023-06-05T08:16:46;15.20;84.70
4795;DHT22;2411;47.060;15.064;2023-06-05T08:19:14;15.20;83.10
4795;DHT22;2411;47.060;15.064;2023-06-05T08:21:42;15.30;88.10
4795;DHT22;2411;47.060;15.064;2023-06-05T08:24:09;15.20;82.40
4795;DHT22;2411;47.060;15.064;2023-06-05T08:26:36;15.20;77.70
4795;DHT22;2411;47.060;15.064;2023-06-05T08:29:04;15.20;79.60
4795;DHT22;2411;47.060;15.064;2023-06-05T08:31:50;15.10;85.50
4795;DHT22;2411;47.060;15.064;2023-06-05T08:34:17;15.10;68.40
4795;DHT22;2411;47.060;15.064;2023-06-05T08:36:45;15.00;70.30
4795;DHT22;2411;47.060;15.064;2023-06-05T08:39:12;15.00;70.80
4795;DHT22;2411;47.060;15.064;2023-06-05T08:41:42;15.10;73.00
4795;DHT22;2411;47.060;15.064;2023-06-05T08:44:13;15.10;70.00
4795;DHT22;2411;47.060;15.064;2023-06-05T08:46:41;15.20;67.80
4795;DHT22;2411;47.060;15.064;2023-06-05T08:49:11;15.30;60.00
4795;DHT22;2411;47.060;15.064;2023-06-05T08:51:39;15.30;56.80
4795;DHT22;2411;47.060;15.064;2023-06-05T08:54:09;15.40;53.50
4795;DHT22;2411;47.060;15.064;2023-06-05T08:56:41;15.70;59.10
4795;DHT22;2411;47.060;15.064;2023-06-05T08:59:10;15.80;78.40
4795;DHT22;2411;47.060;15.064;2023-06-05T09:01:42;15.90;58.80
4795;DHT22;2411;47.060;15.064;2023-06-05T09:04:11;16.00;61.80
4795;DHT22;2411;47.060;15.064;2023-06-05T09:06:38;16.10;51.10
4795;DHT22;2411;47.060;15.064;2023-06-05T09:09:07;16.00;45.90
4795;DHT22;2411;47.060;15.064;2023-06-05T09:11:37;16.00;52.50
4795;DHT22;2411;47.060;15.064;2023-06-05T09:14:06;16.10;50.30
4795;DHT22;2411;47.060;15.064;2023-06-05T09:16:36;15.90;45.30
4795;DHT22;2411;47.060;15.064;2023-06-05T09:19:05;15.80;48.30
4795;DHT22;2411;47.060;15.064;2023-06-05T09:21:33;15.80;53.10
4795;DHT22;2411;47.060;15.064;2023-06-05T09:24:15;15.70;53.00
4795;DHT22;2411;47.060;15.064;2023-06-05T09:26:57;15.60;60.80
4795;DHT22;2411;47.060;15.064;2023-06-05T09:29:33;15.60;53.70
4795;DHT22;2411;47.060;15.064;2023-06-05T09:32:05;15.70;55.30
4795;DHT22;2411;47.060;15.064;2023-06-05T09:34:34;15.90;58.30
4795;DHT22;2411;47.060;15.064;2023-06-05T09:37:07;16.00;56.60
4795;DHT22;2411;47.060;15.064;2023-06-05T09:39:37;16.00;54.10
4795;DHT22;2411;47.060;15.064;2023-06-05T09:42:05;16.20;47.00
4795;DHT22;2411;47.060;15.064;2023-06-05T09:44:34;16.10;49.50
4795;DHT22;2411;47.060;15.064;2023-06-05T09:47:03;16.10;48.30
4795;DHT22;2411;47.060;15.064;2023-06-05T09:49:45;16.10;49.00
4795;DHT22;2411;47.060;15.064;2023-06-05T09:52:13;16.10;67.80
4795;DHT22;2411;47.060;15.064;2023-06-05T09:54:45;16.10;46.00
4795;DHT22;2411;47.060;15.064;2023-06-05T09:57:14;16.00;47.30
4795;DHT22;2411;47.060;15.064;2023-06-05T09:59:50;15.80;49.10
4795;DHT22;2411;47.060;15.064;2023-06-05T10:02:24;15.80;43.00
4795;DHT22;2411;47.060;15.064;2023-06-05T10:04:58;15.70;44.70
4795;DHT22;2411;47.060;15.064;2023-06-05T10:07:27;15.60;47.20
4795;DHT22;2411;47.060;15.064;2023-06-05T10:09:55;15.60;52.30
4795;DHT22;2411;47.060;15.064;2023-06-05T10:12:24;15.50;54.60
4795;DHT22;2411;47.060;15.064;2023-06-05T10:14:55;15.50;61.10
4795;DHT22;2411;47.060;15.064;2023-06-05T10:17:23;15.50;66.40
4795;DHT22;2411;47.060;15.064;2023-06-05T10:19:51;15.40;69.10
4795;DHT22;2411;47.060;15.064;2023-06-05T10:22:18;15.30;77.20
4795;DHT22;2411;47.060;15.064;2023-06-05T10:24:53;15.40;77.80
4795;DHT22;2411;47.060;15.064;2023-06-05T10:27:47;15.50;73.20
4795;DHT22;2411;47.060;15.064;2023-06-05T10:33:38;15.50;90.10
4795;DHT22;2411;47.060;15.064;2023-06-05T10:36:11;15.40;81.30
4795;DHT22;2411;47.060;15.064;2023-06-05T10:38:43;15.40;80.10
4795;DHT22;2411;47.060;15.064;2023-06-05T10:41:11;15.50;85.30
4795;DHT22;2411;47.060;15.064;2023-06-05T10:43:49;15.50;85.70
4795;DHT22;2411;47.060;15.064;2023-06-05T10:46:30;15.40;82.50
4795;DHT22;2411;47.060;15.064;2023-06-05T10:51:49;15.30;85.10
4795;DHT22;2411;47.060;15.064;2023-06-05T10:57:02;15.40;80.70
4795;DHT22;2411;47.060;15.064;2023-06-05T10:59:32;15.40;82.10
4795;DHT22;2411;47.060;15.064;2023-06-05T11:07:28;15.40;81.20
4795;DHT22;2411;47.060;15.064;2023-06-05T11:15:36;15.40;73.30
4795;DHT22;2411;47.060;15.064;2023-06-05T11:18:26;15.50;79.10
4795;DHT22;2411;47.060;15.064;2023-06-05T11:20:53;15.50;81.40
4795;DHT22;2411;47.060;15.064;2023-06-05T11:23:21;15.50;82.20
4795;DHT22;2411;47.060;15.064;2023-06-05T11:25:49;15.40;80.10
4795;DHT22;2411;47.060;15.064;2023-06-05T11:28:37;15.30;84.40
4795;DHT22;2411;47.060;15.064;2023-06-05T11:31:05;15.20;87.00
4795;DHT22;2411;47.060;15.064;2023-06-05T11:33:33;15.20;91.10
4795;DHT22;2411;47.060;15.064;2023-06-05T11:36:04;15.20;97.60
4795;DHT22;2411;47.060;15.064;2023-06-05T11:38:33;15.10;96.20
4795;DHT22;2411;47.060;15.064;2023-06-05T11:41:05;15.10;93.90
4795;DHT22;2411;47.060;15.064;2023-06-05T11:43:41;15.20;90.90
4795;DHT22;2411;47.060;15.064;2023-06-05T11:46:09;15.20;93.60
4795;DHT22;2411;47.060;15.064;2023-06-05T11:48:45;15.20;94.70
4795;DHT22;2411;47.060;15.064;2023-06-05T11:51:12;15.20;97.50
4795;DHT22;2411;47.060;15.064;2023-06-05T11:53:45;15.20;91.80
4795;DHT22;2411;47.060;15.064;2023-06-05T11:56:15;15.20;95.10
4795;DHT22;2411;47.060;15.064;2023-06-05T11:58:44;15.30;87.10
4795;DHT22;2411;47.060;15.064;2023-06-05T12:01:14;15.20;88.00
4795;DHT22;2411;47.060;15.064;2023-06-05T12:03:46;15.20;94.70
4795;DHT22;2411;47.060;15.064;2023-06-05T12:06:15;15.30;90.70
4795;DHT22;2411;47.060;15.064;2023-06-05T12:08:44;15.10;83.30
4795;DHT22;2411;47.060;15.064;2023-06-05T12:11:21;15.20;92.90
4795;DHT22;2411;47.060;15.064;2023-06-05T12:13:51;15.20;93.40
4795;DHT22;2411;47.060;15.064;2023-06-05T12:16:39;15.20;82.10
4795;DHT22;2411;47.060;15.064;2023-06-05T12:19:17;15.30;62.80
4795;DHT22;2411;47.060;15.064;2023-06-05T12:21:47;15.20;75.30
4795;DHT22;2411;47.060;15.064;2023-06-05T12:24:22;15.20;79.90
4795;DHT22;2411;47.060;15.064;2023-06-05T12:27:00;15.10;89.00
4795;DHT22;2411;47.060;15.064;2023-06-05T12:29:30;15.30;81.90
4795;DHT22;2411;47.060;15.064;2023-06-05T12:31:59;15.20;80.40
4795;DHT22;2411;47.060;15.064;2023-06-05T12:34:46;15.30;80.10
4795;DHT22;2411;47.060;15.064;2023-06-05T12:37:29;15.30;70.50
4795;DHT22;2411;47.060;15.064;2023-06-05T12:40:00;15.30;73.70
4795;DHT22;2411;47.060;15.064;2023-06-05T12:42:28;15.30;71.00
4795;DHT22;2411;47.060;15.064;2023-06-05T12:45:00;15.30;68.10
4795;DHT22;2411;47.060;15.064;2023-06-05T12:47:27;15.30;65.10
4795;DHT22;2411;47.060;15.064;2023-06-05T12:49:54;15.20;63.20
4795;DHT22;2411;47.060;15.064;2023-06-05T12:52:24;15.20;62.00
4795;DHT22;2411;47.060;15.064;2023-06-05T12:54:53;15.20;54.20
4795;DHT22;2411;47.060;15.064;2023-06-05T12:57:21;15.10;53.20
4795;DHT22;2411;47.060;15.064;2023-06-05T12:59:52;15.10;49.60
4795;DHT22;2411;47.060;15.064;2023-06-05T13:02:20;15.10;53.60
4795;DHT22;2411;47.060;15.064;2023-06-05T13:04:48;15.10;54.60
4795;DHT22;2411;47.060;15.064;2023-06-05T13:07:15;15.10;49.80
4795;DHT22;2411;47.060;15.064;2023-06-05T13:09:47;15.20;50.10
4795;DHT22;2411;47.060;15.064;2023-06-05T13:12:14;15.20;51.30
4795;DHT22;2411;47.060;15.064;2023-06-05T13:14:41;15.10;54.50
4795;DHT22;2411;47.060;15.064;2023-06-05T13:17:10;15.10;56.30
4795;DHT22;2411;47.060;15.064;2023-06-05T13:19:38;15.10;58.10
4795;DHT22;2411;47.060;15.064;2023-06-05T13:22:05;15.10;56.20
4795;DHT22;2411;47.060;15.064;2023-06-05T13:24:33;15.10;58.80
4795;DHT22;2411;47.060;15.064;2023-06-05T13:27:00;15.10;56.50
4795;DHT22;2411;47.060;15.064;2023-06-05T13:29:28;15.10;58.80
4795;DHT22;2411;47.060;15.064;2023-06-05T13:31:55;15.20;58.30
4795;DHT22;2411;47.060;15.064;2023-06-05T13:34:22;15.20;55.50
4795;DHT22;2411;47.060;15.064;2023-06-05T13:36:50;15.20;55.20
4795;DHT22;2411;47.060;15.064;2023-06-05T13:39:25;15.20;53.80
4795;DHT22;2411;47.060;15.064;2023-06-05T13:41:52;15.10;50.60
4795;DHT22;2411;47.060;15.064;2023-06-05T13:44:21;15.10;49.20
4795;DHT22;2411;47.060;15.064;2023-06-05T13:46:48;15.10;47.80
4795;DHT22;2411;47.060;15.064;2023-06-05T13:49:16;15.10;48.10
4795;DHT22;2411;47.060;15.064;2023-06-05T13:51:43;15.10;51.70
4795;DHT22;2411;47.060;15.064;2023-06-05T13:54:10;15.10;42.00
4795;DHT22;2411;47.060;15.064;2023-06-05T13:56:38;15.20;43.60
4795;DHT22;2411;47.060;15.064;2023-06-05T13:59:05;15.20;42.20
4795;DHT22;2411;47.060;15.064;2023-06-05T14:01:32;15.20;40.30
4795;DHT22;2411;47.060;15.064;2023-06-05T14:04:00;15.10;37.90
4795;DHT22;2411;47.060;15.064;2023-06-05T14:06:28;15.20;43.90
4795;DHT22;2411;47.060;15.064;2023-06-05T14:08:55;15.10;41.60
4795;DHT22;2411;47.060;15.064;2023-06-05T14:11:23;15.10;35.00
4795;DHT22;2411;47.060;15.064;2023-06-05T14:13:50;15.00;36.40
4795;DHT22;2411;47.060;15.064;2023-06-05T14:16:17;15.00;37.10
4795;DHT22;2411;47.060;15.064;2023-06-05T14:18:44;15.00;37.40
4795;DHT22;2411;47.060;15.064;2023-06-05T14:21:12;15.00;36.00
4795;DHT22;2411;47.060;15.064;2023-06-05T14:23:39;15.00;40.90
4795;DHT22;2411;47.060;15.064;2023-06-05T14:26:07;15.00;41.90
4795;DHT22;2411;47.060;15.064;2023-06-05T14:28:36;14.90;49.70
4795;DHT22;2411;47.060;15.064;2023-06-05T14:31:03;15.00;54.40
4795;DHT22;2411;47.060;15.064;2023-06-05T14:33:31;14.90;53.20
4795;DHT22;2411;47.060;15.064;2023-06-05T14:35:58;15.00;58.80
4795;DHT22;2411;47.060;15.064;2023-06-05T14:38:26;14.90;64.10
4795;DHT22;2411;47.060;15.064;2023-06-05T14:40:53;14.90;57.30
4795;DHT22;2411;47.060;15.064;2023-06-05T14:43:21;14.90;69.90
4795;DHT22;2411;47.060;15.064;2023-06-05T14:45:48;15.00;74.30
4795;DHT22;2411;47.060;15.064;2023-06-05T14:48:16;15.00;81.50
4795;DHT22;2411;47.060;15.064;2023-06-05T14:50:43;15.00;90.40
4795;DHT22;2411;47.060;15.064;2023-06-05T14:53:11;14.90;68.80
4795;DHT22;2411;47.060;15.064;2023-06-05T14:55:38;15.00;51.50
4795;DHT22;2411;47.060;15.064;2023-06-05T14:58:06;15.00;46.70
4795;DHT22;2411;47.060;15.064;2023-06-05T15:00:34;15.00;51.20
4795;DHT22;2411;47.060;15.064;2023-06-05T15:03:02;15.00;44.30
4795;DHT22;2411;47.060;15.064;2023-06-05T15:05:29;15.10;47.00
4795;DHT22;2411;47.060;15.064;2023-06-05T15:07:58;15.10;56.20
4795;DHT22;2411;47.060;15.064;2023-06-05T15:10:25;15.10;58.80
4795;DHT22;2411;47.060;15.064;2023-06-05T15:12:54;15.10;59.20
4795;DHT22;2411;47.060;15.064;2023-06-05T15:15:24;15.10;54.00
4795;DHT22;2411;47.060;15.064;2023-06-05T15:17:52;15.10;50.50
4795;DHT22;2411;47.060;15.064;2023-06-05T15:20:21;15.10;43.80
4795;DHT22;2411;47.060;15.064;2023-06-05T15:22:52;15.00;41.10
4795;DHT22;2411;47.060;15.064;2023-06-05T15:25:40;15.00;43.70
4795;DHT22;2411;47.060;15.064;2023-06-05T15:28:08;15.00;53.80
4795;DHT22;2411;47.060;15.064;2023-06-05T15:30:35;15.10;61.40
4795;DHT22;2411;47.060;15.064;2023-06-05T15:33:02;15.10;58.70
4795;DHT22;2411;47.060;15.064;2023-06-05T15:35:30;15.00;59.30
4795;DHT22;2411;47.060;15.064;2023-06-05T15:37:57;15.00;74.20
4795;DHT22;2411;47.060;15.064;2023-06-05T15:40:25;15.00;63.60
4795;DHT22;2411;47.060;15.064;2023-06-05T15:43:09;14.90;78.70
4795;DHT22;2411;47.060;15.064;2023-06-05T15:45:38;14.90;60.40
4795;DHT22;2411;47.060;15.064;2023-06-05T15:48:06;14.90;61.50
4795;DHT22;2411;47.060;15.064;2023-06-05T15:50:34;14.80;64.90
4795;DHT22;2411;47.060;15.064;2023-06-05T15:53:01;14.90;78.00
4795;DHT22;2411;47.060;15.064;2023-06-05T15:55:29;14.90;78.40
4795;DHT22;2411;47.060;15.064;2023-06-05T15:57:56;14.90;85.50
4795;DHT22;2411;47.060;15.064;2023-06-05T16:00:24;14.80;93.40
4795;DHT22;2411;47.060;15.064;2023-06-05T16:02:53;14.80;98.10
4795;DHT22;2411;47.060;15.064;2023-06-05T16:05:21;14.80;99.20
4795;DHT22;2411;47.060;15.064;2023-06-05T16:07:49;14.90;99.90
4795;DHT22;2411;47.060;15.064;2023-06-05T16:10:18;14.70;96.90
4795;DHT22;2411;47.060;15.064;2023-06-05T16:12:47;14.70;99.90
4795;DHT22;2411;47.060;15.064;2023-06-05T16:15:14;14.70;98.90
4795;DHT22;2411;47.060;15.064;2023-06-05T16:17:42;14.70;97.20
4795;DHT22;2411;47.060;15.064;2023-06-05T16:20:10;14.80;99.90